Hauptseite
METAR-TAF:

METAR-TAF

Flughäfen :

Salinas, Ecuador

Breite: 02-12-18S, Länge: 080-59-20W, Höhe: 5 m

Beobachtung

Neuester Wetterbericht von vor 35 Minuten, um 11:00 UTC
Wind 5 kt aus Süd/Südwest
Temperatur 21°C
Luftfeuchtigkeit 88%
Luftdruck 1011 hPa
Sichtweite 10 km oder mehr
Leicht bewölkt in der Höhe von 600 ft
Durchbrochene Bewölkung in der Höhe von 1300 ft

METAR: SESA 221100Z 21005KT 9999 FEW006 BKN013 21/19 Q1011 RMK A2986

Zeit: 06:35 (11:35 UTC)


TAF: fehlend

Wetterbeobachtungen und Prognosen von mehr als 4000 Flughäfen (METAR und TAF Bericht).

Die verfügbaren Stationen werden durch gelbe und rote Markierungen auf der Karte dargestellt.

Führen Sie die Maus auf sie, um den Namen der Station zu sehen.

Darauf klicken, um die Beobachtung von Wetterbeobachtungen und Prognosen zu sehen.

Um die Karte zu ändern : klicken Sie auf den grünen Tasten mit einem schwarzen Kreuz Zum Vergrößern, auf den grünen Button mit einem Gedankenstrich zu verkleinern, oder auf die grünen Pfeile für benachbarte Karten.


METAR-TAF: